sensor_id;sensor_type;location;lat;lon;timestamp;P1;durP1;ratioP1;P2;durP2;ratioP2
47413;SDS011;33163;0.000;0.000;2023-02-18T00:00:54;8.85;;;3.22;;
47413;SDS011;33163;0.000;0.000;2023-02-18T00:03:21;9.95;;;3.20;;
47413;SDS011;33163;0.000;0.000;2023-02-18T00:05:49;14.90;;;3.85;;
47413;SDS011;33163;0.000;0.000;2023-02-18T00:08:17;11.38;;;3.85;;
47413;SDS011;33163;0.000;0.000;2023-02-18T00:10:44;10.80;;;3.72;;
47413;SDS011;33163;0.000;0.000;2023-02-18T00:13:10;10.93;;;3.72;;
47413;SDS011;33163;0.000;0.000;2023-02-18T00:15:37;8.05;;;3.40;;
47413;SDS011;33163;0.000;0.000;2023-02-18T00:18:05;11.10;;;3.47;;
47413;SDS011;33163;0.000;0.000;2023-02-18T00:20:32;8.52;;;3.60;;
47413;SDS011;33163;0.000;0.000;2023-02-18T00:23:00;8.82;;;4.03;;
47413;SDS011;33163;0.000;0.000;2023-02-18T00:25:28;13.65;;;4.18;;
47413;SDS011;33163;0.000;0.000;2023-02-18T00:27:55;10.88;;;3.63;;
47413;SDS011;33163;0.000;0.000;2023-02-18T00:30:21;10.13;;;3.55;;
47413;SDS011;33163;0.000;0.000;2023-02-18T00:32:48;11.82;;;4.68;;
47413;SDS011;33163;0.000;0.000;2023-02-18T00:35:17;9.15;;;3.92;;
47413;SDS011;33163;0.000;0.000;2023-02-18T00:37:44;10.00;;;3.40;;
47413;SDS011;33163;0.000;0.000;2023-02-18T00:40:11;9.95;;;4.00;;
47413;SDS011;33163;0.000;0.000;2023-02-18T00:42:39;7.88;;;3.25;;
47413;SDS011;33163;0.000;0.000;2023-02-18T00:45:07;13.20;;;3.83;;
47413;SDS011;33163;0.000;0.000;2023-02-18T00:47:34;9.35;;;3.80;;
47413;SDS011;33163;0.000;0.000;2023-02-18T00:50:00;12.07;;;3.80;;
47413;SDS011;33163;0.000;0.000;2023-02-18T00:52:27;13.30;;;4.32;;
47413;SDS011;33163;0.000;0.000;2023-02-18T00:54:54;11.57;;;4.00;;
47413;SDS011;33163;0.000;0.000;2023-02-18T00:57:21;10.43;;;4.38;;
47413;SDS011;33163;0.000;0.000;2023-02-18T00:59:49;8.75;;;3.85;;
47413;SDS011;33163;0.000;0.000;2023-02-18T01:02:16;11.25;;;3.90;;
47413;SDS011;33163;0.000;0.000;2023-02-18T01:04:43;8.75;;;3.80;;
47413;SDS011;33163;0.000;0.000;2023-02-18T01:07:10;11.13;;;4.22;;
47413;SDS011;33163;0.000;0.000;2023-02-18T01:09:36;8.73;;;3.58;;
47413;SDS011;33163;0.000;0.000;2023-02-18T01:12:03;8.88;;;3.75;;
47413;SDS011;33163;0.000;0.000;2023-02-18T01:14:30;9.43;;;3.78;;
47413;SDS011;33163;0.000;0.000;2023-02-18T01:16:58;8.35;;;3.40;;
47413;SDS011;33163;0.000;0.000;2023-02-18T01:19:25;8.15;;;3.50;;
47413;SDS011;33163;0.000;0.000;2023-02-18T01:21:52;8.23;;;3.22;;
47413;SDS011;33163;0.000;0.000;2023-02-18T01:24:19;8.88;;;3.13;;
47413;SDS011;33163;0.000;0.000;2023-02-18T01:26:46;9.38;;;3.85;;
47413;SDS011;33163;0.000;0.000;2023-02-18T01:29:12;9.25;;;3.63;;
47413;SDS011;33163;0.000;0.000;2023-02-18T01:31:39;5.85;;;2.53;;
47413;SDS011;33163;0.000;0.000;2023-02-18T01:34:07;7.95;;;2.72;;
47413;SDS011;33163;0.000;0.000;2023-02-18T01:36:34;7.93;;;3.80;;
47413;SDS011;33163;0.000;0.000;2023-02-18T01:39:01;7.88;;;3.25;;
47413;SDS011;33163;0.000;0.000;2023-02-18T01:41:28;7.78;;;3.20;;
47413;SDS011;33163;0.000;0.000;2023-02-18T01:44:10;6.40;;;2.65;;
47413;SDS011;33163;0.000;0.000;2023-02-18T01:46:38;8.18;;;2.95;;
47413;SDS011;33163;0.000;0.000;2023-02-18T01:49:05;10.07;;;3.70;;
47413;SDS011;33163;0.000;0.000;2023-02-18T01:51:36;6.13;;;3.30;;
47413;SDS011;33163;0.000;0.000;2023-02-18T01:54:07;7.72;;;3.30;;
47413;SDS011;33163;0.000;0.000;2023-02-18T01:56:40;7.78;;;2.90;;
47413;SDS011;33163;0.000;0.000;2023-02-18T01:59:10;7.10;;;3.53;;
47413;SDS011;33163;0.000;0.000;2023-02-18T02:01:41;6.32;;;2.97;;
47413;SDS011;33163;0.000;0.000;2023-02-18T02:04:12;6.43;;;3.40;;
47413;SDS011;33163;0.000;0.000;2023-02-18T02:06:38;8.35;;;3.50;;
47413;SDS011;33163;0.000;0.000;2023-02-18T02:09:06;7.22;;;3.58;;
47413;SDS011;33163;0.000;0.000;2023-02-18T02:11:40;8.27;;;3.55;;
47413;SDS011;33163;0.000;0.000;2023-02-18T02:14:23;7.85;;;2.60;;
47413;SDS011;33163;0.000;0.000;2023-02-18T02:17:02;6.80;;;3.13;;
47413;SDS011;33163;0.000;0.000;2023-02-18T02:23:03;5.53;;;3.25;;
47413;SDS011;33163;0.000;0.000;2023-02-18T02:26:20;5.78;;;2.75;;
47413;SDS011;33163;0.000;0.000;2023-02-18T02:35:11;5.18;;;2.63;;
47413;SDS011;33163;0.000;0.000;2023-02-18T02:37:43;5.45;;;3.15;;
47413;SDS011;33163;0.000;0.000;2023-02-18T02:40:19;10.15;;;3.83;;
47413;SDS011;33163;0.000;0.000;2023-02-18T02:42:52;7.28;;;2.95;;
47413;SDS011;33163;0.000;0.000;2023-02-18T02:45:34;5.90;;;2.83;;
47413;SDS011;33163;0.000;0.000;2023-02-18T02:48:09;5.45;;;2.92;;
47413;SDS011;33163;0.000;0.000;2023-02-18T02:50:43;8.07;;;3.47;;
47413;SDS011;33163;0.000;0.000;2023-02-18T02:53:15;7.20;;;2.90;;
47413;SDS011;33163;0.000;0.000;2023-02-18T02:55:45;7.18;;;3.20;;
47413;SDS011;33163;0.000;0.000;2023-02-18T02:58:13;6.72;;;2.92;;
47413;SDS011;33163;0.000;0.000;2023-02-18T03:00:44;5.50;;;2.40;;
47413;SDS011;33163;0.000;0.000;2023-02-18T03:03:27;7.45;;;3.20;;
47413;SDS011;33163;0.000;0.000;2023-02-18T03:06:10;5.55;;;2.78;;
47413;SDS011;33163;0.000;0.000;2023-02-18T03:08:57;4.40;;;2.38;;
47413;SDS011;33163;0.000;0.000;2023-02-18T03:11:31;5.93;;;2.38;;
47413;SDS011;33163;0.000;0.000;2023-02-18T03:14:08;4.45;;;2.47;;
47413;SDS011;33163;0.000;0.000;2023-02-18T03:16:41;4.22;;;2.60;;
47413;SDS011;33163;0.000;0.000;2023-02-18T03:19:18;5.45;;;2.45;;
47413;SDS011;33163;0.000;0.000;2023-02-18T03:21:50;4.57;;;2.50;;
47413;SDS011;33163;0.000;0.000;2023-02-18T03:24:22;3.55;;;2.10;;
47413;SDS011;33163;0.000;0.000;2023-02-18T03:26:53;5.47;;;2.22;;
47413;SDS011;33163;0.000;0.000;2023-02-18T03:29:24;4.28;;;1.98;;
47413;SDS011;33163;0.000;0.000;2023-02-18T03:31:53;4.82;;;2.60;;
47413;SDS011;33163;0.000;0.000;2023-02-18T03:34:24;3.90;;;2.03;;
47413;SDS011;33163;0.000;0.000;2023-02-18T03:36:55;5.35;;;2.58;;
47413;SDS011;33163;0.000;0.000;2023-02-18T03:39:23;3.92;;;2.05;;
47413;SDS011;33163;0.000;0.000;2023-02-18T03:41:53;4.55;;;2.10;;
47413;SDS011;33163;0.000;0.000;2023-02-18T03:44:20;3.20;;;1.77;;
47413;SDS011;33163;0.000;0.000;2023-02-18T03:46:49;4.22;;;2.42;;
47413;SDS011;33163;0.000;0.000;2023-02-18T03:49:16;6.13;;;2.15;;
47413;SDS011;33163;0.000;0.000;2023-02-18T03:51:43;3.20;;;1.95;;
47413;SDS011;33163;0.000;0.000;2023-02-18T03:54:11;4.35;;;1.90;;
47413;SDS011;33163;0.000;0.000;2023-02-18T03:56:38;4.30;;;2.10;;
47413;SDS011;33163;0.000;0.000;2023-02-18T03:59:06;3.35;;;2.03;;
47413;SDS011;33163;0.000;0.000;2023-02-18T04:01:33;4.32;;;2.20;;
47413;SDS011;33163;0.000;0.000;2023-02-18T04:04:00;5.05;;;1.88;;
47413;SDS011;33163;0.000;0.000;2023-02-18T04:06:27;5.30;;;1.73;;
47413;SDS011;33163;0.000;0.000;2023-02-18T04:08:54;2.63;;;1.60;;
47413;SDS011;33163;0.000;0.000;2023-02-18T04:11:22;4.35;;;2.00;;
47413;SDS011;33163;0.000;0.000;2023-02-18T04:13:49;3.38;;;1.60;;
47413;SDS011;33163;0.000;0.000;2023-02-18T04:16:16;3.58;;;1.52;;
47413;SDS011;33163;0.000;0.000;2023-02-18T04:18:42;2.33;;;1.52;;
47413;SDS011;33163;0.000;0.000;2023-02-18T04:21:09;4.35;;;1.77;;
47413;SDS011;33163;0.000;0.000;2023-02-18T04:23:36;3.42;;;2.08;;
47413;SDS011;33163;0.000;0.000;2023-02-18T04:26:05;5.40;;;1.95;;
47413;SDS011;33163;0.000;0.000;2023-02-18T04:28:33;2.88;;;1.88;;
47413;SDS011;33163;0.000;0.000;2023-02-18T04:30:59;4.65;;;1.73;;
47413;SDS011;33163;0.000;0.000;2023-02-18T04:33:26;3.70;;;1.58;;
47413;SDS011;33163;0.000;0.000;2023-02-18T04:35:53;4.55;;;1.75;;
47413;SDS011;33163;0.000;0.000;2023-02-18T04:38:20;6.40;;;1.77;;
47413;SDS011;33163;0.000;0.000;2023-02-18T04:40:47;3.13;;;1.77;;
47413;SDS011;33163;0.000;0.000;2023-02-18T04:43:13;3.53;;;1.95;;
47413;SDS011;33163;0.000;0.000;2023-02-18T04:45:41;2.95;;;1.73;;
47413;SDS011;33163;0.000;0.000;2023-02-18T04:48:08;3.25;;;1.50;;
47413;SDS011;33163;0.000;0.000;2023-02-18T04:50:35;3.47;;;1.80;;
47413;SDS011;33163;0.000;0.000;2023-02-18T04:53:02;4.70;;;1.83;;
47413;SDS011;33163;0.000;0.000;2023-02-18T04:55:31;4.28;;;1.50;;
47413;SDS011;33163;0.000;0.000;2023-02-18T04:57:58;3.13;;;1.85;;
47413;SDS011;33163;0.000;0.000;2023-02-18T05:00:24;3.15;;;1.73;;
47413;SDS011;33163;0.000;0.000;2023-02-18T05:02:54;3.22;;;1.50;;
47413;SDS011;33163;0.000;0.000;2023-02-18T05:05:21;3.05;;;1.35;;
47413;SDS011;33163;0.000;0.000;2023-02-18T05:07:48;3.50;;;1.70;;
47413;SDS011;33163;0.000;0.000;2023-02-18T05:10:15;3.60;;;1.67;;
47413;SDS011;33163;0.000;0.000;2023-02-18T05:12:43;4.55;;;2.00;;
47413;SDS011;33163;0.000;0.000;2023-02-18T05:15:10;5.85;;;2.10;;
47413;SDS011;33163;0.000;0.000;2023-02-18T05:17:37;2.45;;;1.40;;
47413;SDS011;33163;0.000;0.000;2023-02-18T05:20:06;2.67;;;1.60;;
47413;SDS011;33163;0.000;0.000;2023-02-18T05:22:33;2.95;;;1.75;;
47413;SDS011;33163;0.000;0.000;2023-02-18T05:25:00;3.30;;;1.52;;
47413;SDS011;33163;0.000;0.000;2023-02-18T05:27:27;3.85;;;1.75;;
47413;SDS011;33163;0.000;0.000;2023-02-18T05:29:54;3.63;;;1.48;;
47413;SDS011;33163;0.000;0.000;2023-02-18T05:32:20;6.28;;;1.88;;
47413;SDS011;33163;0.000;0.000;2023-02-18T05:34:47;2.63;;;1.45;;
47413;SDS011;33163;0.000;0.000;2023-02-18T05:37:15;3.10;;;1.90;;
47413;SDS011;33163;0.000;0.000;2023-02-18T05:39:42;3.47;;;1.88;;
47413;SDS011;33163;0.000;0.000;2023-02-18T05:42:09;4.07;;;1.80;;
47413;SDS011;33163;0.000;0.000;2023-02-18T05:44:36;5.95;;;2.03;;
47413;SDS011;33163;0.000;0.000;2023-02-18T05:47:04;3.70;;;1.70;;
47413;SDS011;33163;0.000;0.000;2023-02-18T05:49:33;3.22;;;1.60;;
47413;SDS011;33163;0.000;0.000;2023-02-18T05:52:01;6.85;;;1.90;;
47413;SDS011;33163;0.000;0.000;2023-02-18T05:54:31;3.30;;;1.75;;
47413;SDS011;33163;0.000;0.000;2023-02-18T05:57:02;3.75;;;1.33;;
47413;SDS011;33163;0.000;0.000;2023-02-18T05:59:29;2.80;;;1.55;;
47413;SDS011;33163;0.000;0.000;2023-02-18T06:01:56;4.53;;;1.70;;
47413;SDS011;33163;0.000;0.000;2023-02-18T06:04:22;4.50;;;1.67;;
47413;SDS011;33163;0.000;0.000;2023-02-18T06:06:49;3.78;;;1.80;;
47413;SDS011;33163;0.000;0.000;2023-02-18T06:09:16;5.10;;;1.95;;
47413;SDS011;33163;0.000;0.000;2023-02-18T06:11:44;3.35;;;1.63;;
47413;SDS011;33163;0.000;0.000;2023-02-18T06:14:11;2.92;;;1.27;;
47413;SDS011;33163;0.000;0.000;2023-02-18T06:16:38;3.10;;;1.52;;
47413;SDS011;33163;0.000;0.000;2023-02-18T06:19:04;3.40;;;1.90;;
47413;SDS011;33163;0.000;0.000;2023-02-18T06:21:31;4.03;;;1.55;;
47413;SDS011;33163;0.000;0.000;2023-02-18T06:23:58;5.88;;;1.70;;
47413;SDS011;33163;0.000;0.000;2023-02-18T06:26:25;7.53;;;1.48;;
47413;SDS011;33163;0.000;0.000;2023-02-18T06:28:53;3.63;;;1.63;;
47413;SDS011;33163;0.000;0.000;2023-02-18T06:31:20;5.20;;;1.98;;
47413;SDS011;33163;0.000;0.000;2023-02-18T06:33:47;3.50;;;1.85;;
47413;SDS011;33163;0.000;0.000;2023-02-18T06:36:14;7.43;;;2.22;;
47413;SDS011;33163;0.000;0.000;2023-02-18T06:38:41;6.35;;;1.83;;
47413;SDS011;33163;0.000;0.000;2023-02-18T06:41:09;8.07;;;1.92;;
47413;SDS011;33163;0.000;0.000;2023-02-18T06:43:37;6.15;;;2.42;;
47413;SDS011;33163;0.000;0.000;2023-02-18T06:46:05;7.97;;;2.20;;
47413;SDS011;33163;0.000;0.000;2023-02-18T06:48:32;7.18;;;2.10;;
47413;SDS011;33163;0.000;0.000;2023-02-18T06:50:59;5.63;;;1.80;;
47413;SDS011;33163;0.000;0.000;2023-02-18T06:53:25;8.15;;;2.30;;
47413;SDS011;33163;0.000;0.000;2023-02-18T06:55:52;12.43;;;2.60;;
47413;SDS011;33163;0.000;0.000;2023-02-18T06:58:19;5.50;;;2.20;;
47413;SDS011;33163;0.000;0.000;2023-02-18T07:00:47;5.85;;;2.40;;
47413;SDS011;33163;0.000;0.000;2023-02-18T07:03:15;7.43;;;2.08;;
47413;SDS011;33163;0.000;0.000;2023-02-18T07:05:42;6.78;;;1.92;;
47413;SDS011;33163;0.000;0.000;2023-02-18T07:08:09;5.00;;;1.80;;
47413;SDS011;33163;0.000;0.000;2023-02-18T07:10:35;6.32;;;2.17;;
47413;SDS011;33163;0.000;0.000;2023-02-18T07:13:02;6.40;;;2.42;;
47413;SDS011;33163;0.000;0.000;2023-02-18T07:15:29;7.53;;;2.00;;
47413;SDS011;33163;0.000;0.000;2023-02-18T07:17:56;8.57;;;2.00;;
47413;SDS011;33163;0.000;0.000;2023-02-18T07:20:24;9.02;;;2.28;;
47413;SDS011;33163;0.000;0.000;2023-02-18T07:22:52;6.95;;;2.25;;
47413;SDS011;33163;0.000;0.000;2023-02-18T07:25:19;7.13;;;2.22;;
47413;SDS011;33163;0.000;0.000;2023-02-18T07:27:46;9.25;;;2.83;;
47413;SDS011;33163;0.000;0.000;2023-02-18T07:30:13;7.90;;;1.90;;
47413;SDS011;33163;0.000;0.000;2023-02-18T07:32:41;12.35;;;2.78;;
47413;SDS011;33163;0.000;0.000;2023-02-18T07:35:09;6.38;;;2.10;;
47413;SDS011;33163;0.000;0.000;2023-02-18T07:37:40;7.65;;;2.28;;
47413;SDS011;33163;0.000;0.000;2023-02-18T07:40:11;9.88;;;2.47;;
47413;SDS011;33163;0.000;0.000;2023-02-18T07:42:40;10.70;;;2.53;;
47413;SDS011;33163;0.000;0.000;2023-02-18T07:45:07;10.15;;;2.17;;
47413;SDS011;33163;0.000;0.000;2023-02-18T07:47:34;8.15;;;2.10;;
47413;SDS011;33163;0.000;0.000;2023-02-18T07:50:01;11.07;;;2.65;;
47413;SDS011;33163;0.000;0.000;2023-02-18T07:52:29;17.23;;;2.55;;
47413;SDS011;33163;0.000;0.000;2023-02-18T07:54:57;9.90;;;2.45;;
47413;SDS011;33163;0.000;0.000;2023-02-18T07:57:24;18.38;;;2.58;;
47413;SDS011;33163;0.000;0.000;2023-02-18T07:59:51;13.35;;;2.75;;
47413;SDS011;33163;0.000;0.000;2023-02-18T08:02:19;20.42;;;5.68;;
47413;SDS011;33163;0.000;0.000;2023-02-18T08:04:47;22.33;;;5.32;;
47413;SDS011;33163;0.000;0.000;2023-02-18T08:07:15;25.45;;;5.03;;
47413;SDS011;33163;0.000;0.000;2023-02-18T08:09:43;20.88;;;5.53;;
47413;SDS011;33163;0.000;0.000;2023-02-18T08:12:11;13.98;;;4.13;;
47413;SDS011;33163;0.000;0.000;2023-02-18T08:14:38;21.58;;;5.15;;
47413;SDS011;33163;0.000;0.000;2023-02-18T08:17:05;15.38;;;4.20;;
47413;SDS011;33163;0.000;0.000;2023-02-18T08:19:34;17.88;;;4.72;;
47413;SDS011;33163;0.000;0.000;2023-02-18T08:22:01;22.17;;;5.07;;
47413;SDS011;33163;0.000;0.000;2023-02-18T08:24:28;27.95;;;5.43;;
47413;SDS011;33163;0.000;0.000;2023-02-18T08:26:54;15.80;;;3.78;;
47413;SDS011;33163;0.000;0.000;2023-02-18T08:29:23;20.40;;;4.40;;
47413;SDS011;33163;0.000;0.000;2023-02-18T08:31:49;21.13;;;4.43;;
47413;SDS011;33163;0.000;0.000;2023-02-18T08:34:21;18.83;;;4.72;;
47413;SDS011;33163;0.000;0.000;2023-02-18T08:36:47;18.20;;;4.10;;
47413;SDS011;33163;0.000;0.000;2023-02-18T08:39:14;15.98;;;4.40;;
47413;SDS011;33163;0.000;0.000;2023-02-18T08:41:41;15.15;;;3.92;;
47413;SDS011;33163;0.000;0.000;2023-02-18T08:44:08;17.50;;;5.05;;
47413;SDS011;33163;0.000;0.000;2023-02-18T08:46:36;13.95;;;4.35;;
47413;SDS011;33163;0.000;0.000;2023-02-18T08:49:03;13.88;;;4.05;;
47413;SDS011;33163;0.000;0.000;2023-02-18T08:51:30;13.70;;;3.72;;
47413;SDS011;33163;0.000;0.000;2023-02-18T08:53:57;17.05;;;4.45;;
47413;SDS011;33163;0.000;0.000;2023-02-18T08:56:24;22.08;;;4.20;;
47413;SDS011;33163;0.000;0.000;2023-02-18T08:58:51;16.02;;;3.78;;
47413;SDS011;33163;0.000;0.000;2023-02-18T09:01:18;22.73;;;4.53;;
47413;SDS011;33163;0.000;0.000;2023-02-18T09:03:46;15.57;;;3.70;;
47413;SDS011;33163;0.000;0.000;2023-02-18T09:06:13;21.00;;;4.57;;
47413;SDS011;33163;0.000;0.000;2023-02-18T09:08:40;14.95;;;3.83;;
47413;SDS011;33163;0.000;0.000;2023-02-18T09:11:07;16.65;;;4.35;;
47413;SDS011;33163;0.000;0.000;2023-02-18T09:13:34;18.00;;;3.50;;
47413;SDS011;33163;0.000;0.000;2023-02-18T09:16:02;14.73;;;3.38;;
47413;SDS011;33163;0.000;0.000;2023-02-18T09:18:33;20.42;;;4.53;;
47413;SDS011;33163;0.000;0.000;2023-02-18T09:21:02;28.27;;;5.43;;
47413;SDS011;33163;0.000;0.000;2023-02-18T09:23:33;17.58;;;3.75;;
47413;SDS011;33163;0.000;0.000;2023-02-18T09:26:02;16.20;;;3.63;;
47413;SDS011;33163;0.000;0.000;2023-02-18T09:28:30;21.45;;;4.20;;
47413;SDS011;33163;0.000;0.000;2023-02-18T09:30:57;14.75;;;4.05;;
47413;SDS011;33163;0.000;0.000;2023-02-18T09:33:28;12.35;;;3.60;;
47413;SDS011;33163;0.000;0.000;2023-02-18T09:35:55;16.58;;;3.60;;
47413;SDS011;33163;0.000;0.000;2023-02-18T09:38:23;19.92;;;3.90;;
47413;SDS011;33163;0.000;0.000;2023-02-18T09:40:51;13.85;;;3.58;;
47413;SDS011;33163;0.000;0.000;2023-02-18T09:43:22;15.18;;;3.78;;
47413;SDS011;33163;0.000;0.000;2023-02-18T09:45:54;20.30;;;4.03;;
47413;SDS011;33163;0.000;0.000;2023-02-18T09:48:24;16.63;;;4.15;;
47413;SDS011;33163;0.000;0.000;2023-02-18T09:50:53;19.35;;;4.10;;
47413;SDS011;33163;0.000;0.000;2023-02-18T09:53:21;15.45;;;3.42;;
47413;SDS011;33163;0.000;0.000;2023-02-18T09:55:50;16.20;;;3.80;;
47413;SDS011;33163;0.000;0.000;2023-02-18T09:58:19;12.13;;;3.53;;
47413;SDS011;33163;0.000;0.000;2023-02-18T10:00:49;17.58;;;3.60;;
47413;SDS011;33163;0.000;0.000;2023-02-18T10:03:22;15.82;;;3.92;;
47413;SDS011;33163;0.000;0.000;2023-02-18T10:05:54;12.65;;;3.35;;
47413;SDS011;33163;0.000;0.000;2023-02-18T10:08:25;21.05;;;4.22;;
47413;SDS011;33163;0.000;0.000;2023-02-18T10:10:53;15.68;;;4.53;;
47413;SDS011;33163;0.000;0.000;2023-02-18T10:13:21;22.52;;;4.32;;
47413;SDS011;33163;0.000;0.000;2023-02-18T10:15:50;13.20;;;3.30;;
47413;SDS011;33163;0.000;0.000;2023-02-18T10:18:22;12.93;;;3.83;;
47413;SDS011;33163;0.000;0.000;2023-02-18T10:21:00;13.05;;;3.95;;
47413;SDS011;33163;0.000;0.000;2023-02-18T10:23:33;18.25;;;3.72;;
47413;SDS011;33163;0.000;0.000;2023-02-18T10:26:02;13.15;;;3.58;;
47413;SDS011;33163;0.000;0.000;2023-02-18T10:28:31;11.45;;;3.75;;
47413;SDS011;33163;0.000;0.000;2023-02-18T10:31:01;20.05;;;4.47;;
47413;SDS011;33163;0.000;0.000;2023-02-18T10:33:32;12.48;;;3.35;;
47413;SDS011;33163;0.000;0.000;2023-02-18T10:42:24;19.60;;;3.88;;
47413;SDS011;33163;0.000;0.000;2023-02-18T10:45:02;11.77;;;3.25;;
47413;SDS011;33163;0.000;0.000;2023-02-18T10:47:36;12.02;;;3.22;;
47413;SDS011;33163;0.000;0.000;2023-02-18T10:50:08;15.02;;;4.43;;
47413;SDS011;33163;0.000;0.000;2023-02-18T10:52:39;15.98;;;3.83;;
47413;SDS011;33163;0.000;0.000;2023-02-18T10:55:08;12.48;;;3.03;;
47413;SDS011;33163;0.000;0.000;2023-02-18T10:57:45;15.43;;;3.20;;
47413;SDS011;33163;0.000;0.000;2023-02-18T11:00:17;15.32;;;2.80;;
47413;SDS011;33163;0.000;0.000;2023-02-18T11:02:56;14.23;;;3.70;;
47413;SDS011;33163;0.000;0.000;2023-02-18T11:05:29;14.95;;;3.45;;
47413;SDS011;33163;0.000;0.000;2023-02-18T11:08:00;18.25;;;4.00;;
47413;SDS011;33163;0.000;0.000;2023-02-18T11:10:28;13.52;;;3.05;;
47413;SDS011;33163;0.000;0.000;2023-02-18T11:13:00;11.13;;;3.03;;
47413;SDS011;33163;0.000;0.000;2023-02-18T11:15:28;16.88;;;4.07;;
47413;SDS011;33163;0.000;0.000;2023-02-18T11:17:56;15.02;;;4.03;;
47413;SDS011;33163;0.000;0.000;2023-02-18T11:20:26;16.63;;;3.25;;
47413;SDS011;33163;0.000;0.000;2023-02-18T11:22:59;14.68;;;3.75;;
47413;SDS011;33163;0.000;0.000;2023-02-18T11:25:51;12.23;;;3.75;;
47413;SDS011;33163;0.000;0.000;2023-02-18T11:28:32;16.70;;;3.88;;
47413;SDS011;33163;0.000;0.000;2023-02-18T11:31:07;12.82;;;3.63;;
47413;SDS011;33163;0.000;0.000;2023-02-18T11:33:36;13.23;;;3.50;;
47413;SDS011;33163;0.000;0.000;2023-02-18T11:36:09;13.95;;;3.25;;
47413;SDS011;33163;0.000;0.000;2023-02-18T11:38:45;10.82;;;3.20;;
47413;SDS011;33163;0.000;0.000;2023-02-18T11:41:15;18.55;;;3.75;;
47413;SDS011;33163;0.000;0.000;2023-02-18T11:43:46;14.23;;;3.47;;
47413;SDS011;33163;0.000;0.000;2023-02-18T11:46:16;16.85;;;4.07;;
47413;SDS011;33163;0.000;0.000;2023-02-18T11:48:44;14.32;;;3.67;;
47413;SDS011;33163;0.000;0.000;2023-02-18T11:51:15;17.95;;;3.42;;
47413;SDS011;33163;0.000;0.000;2023-02-18T11:53:53;15.00;;;3.45;;
47413;SDS011;33163;0.000;0.000;2023-02-18T11:56:25;12.35;;;3.13;;
47413;SDS011;33163;0.000;0.000;2023-02-18T11:58:54;16.58;;;3.65;;
47413;SDS011;33163;0.000;0.000;2023-02-18T12:01:35;14.75;;;3.10;;
47413;SDS011;33163;0.000;0.000;2023-02-18T12:04:07;11.77;;;3.38;;
47413;SDS011;33163;0.000;0.000;2023-02-18T12:06:38;13.57;;;2.88;;
47413;SDS011;33163;0.000;0.000;2023-02-18T12:09:14;19.17;;;4.03;;
47413;SDS011;33163;0.000;0.000;2023-02-18T12:11:48;9.35;;;2.65;;
47413;SDS011;33163;0.000;0.000;2023-02-18T12:14:19;17.90;;;4.07;;
47413;SDS011;33163;0.000;0.000;2023-02-18T12:17:03;16.45;;;3.08;;
47413;SDS011;33163;0.000;0.000;2023-02-18T12:22:44;13.98;;;3.55;;
47413;SDS011;33163;0.000;0.000;2023-02-18T12:25:23;13.15;;;3.20;;
47413;SDS011;33163;0.000;0.000;2023-02-18T12:28:01;10.93;;;3.13;;
47413;SDS011;33163;0.000;0.000;2023-02-18T12:30:44;10.25;;;2.78;;
47413;SDS011;33163;0.000;0.000;2023-02-18T12:33:32;11.25;;;3.22;;
47413;SDS011;33163;0.000;0.000;2023-02-18T12:36:09;13.35;;;3.10;;
47413;SDS011;33163;0.000;0.000;2023-02-18T12:38:52;10.20;;;2.60;;
47413;SDS011;33163;0.000;0.000;2023-02-18T12:41:28;14.52;;;3.70;;
47413;SDS011;33163;0.000;0.000;2023-02-18T12:44:05;8.70;;;3.25;;
47413;SDS011;33163;0.000;0.000;2023-02-18T12:46:57;12.55;;;3.00;;
47413;SDS011;33163;0.000;0.000;2023-02-18T12:49:41;10.15;;;2.33;;
47413;SDS011;33163;0.000;0.000;2023-02-18T12:52:18;8.70;;;2.50;;
47413;SDS011;33163;0.000;0.000;2023-02-18T12:55:02;10.63;;;2.70;;
47413;SDS011;33163;0.000;0.000;2023-02-18T12:58:04;7.30;;;2.40;;
47413;SDS011;33163;0.000;0.000;2023-02-18T13:00:49;12.80;;;3.53;;
47413;SDS011;33163;0.000;0.000;2023-02-18T13:06:22;10.95;;;2.75;;
47413;SDS011;33163;0.000;0.000;2023-02-18T13:09:08;11.98;;;2.95;;
47413;SDS011;33163;0.000;0.000;2023-02-18T13:11:45;9.40;;;2.50;;
47413;SDS011;33163;0.000;0.000;2023-02-18T13:14:19;11.35;;;2.83;;
47413;SDS011;33163;0.000;0.000;2023-02-18T13:16:48;10.55;;;2.53;;
47413;SDS011;33163;0.000;0.000;2023-02-18T13:19:20;13.98;;;3.15;;
47413;SDS011;33163;0.000;0.000;2023-02-18T13:21:53;10.75;;;3.28;;
47413;SDS011;33163;0.000;0.000;2023-02-18T13:24:26;9.82;;;2.40;;
47413;SDS011;33163;0.000;0.000;2023-02-18T13:26:57;12.30;;;3.05;;
47413;SDS011;33163;0.000;0.000;2023-02-18T13:29:31;10.75;;;3.40;;
47413;SDS011;33163;0.000;0.000;2023-02-18T13:32:05;11.02;;;2.55;;
47413;SDS011;33163;0.000;0.000;2023-02-18T13:34:40;8.20;;;2.90;;
47413;SDS011;33163;0.000;0.000;2023-02-18T13:37:19;12.68;;;3.08;;
47413;SDS011;33163;0.000;0.000;2023-02-18T13:39:52;12.70;;;3.40;;
47413;SDS011;33163;0.000;0.000;2023-02-18T13:42:32;15.98;;;2.65;;
47413;SDS011;33163;0.000;0.000;2023-02-18T13:45:02;9.32;;;2.80;;
47413;SDS011;33163;0.000;0.000;2023-02-18T13:47:36;12.85;;;2.15;;
47413;SDS011;33163;0.000;0.000;2023-02-18T13:50:24;11.75;;;2.20;;
47413;SDS011;33163;0.000;0.000;2023-02-18T13:55:49;10.10;;;2.47;;
47413;SDS011;33163;0.000;0.000;2023-02-18T13:58:20;10.15;;;2.15;;
47413;SDS011;33163;0.000;0.000;2023-02-18T14:00:52;7.75;;;2.47;;
47413;SDS011;33163;0.000;0.000;2023-02-18T14:03:33;11.23;;;2.42;;
47413;SDS011;33163;0.000;0.000;2023-02-18T14:06:13;11.10;;;2.83;;
47413;SDS011;33163;0.000;0.000;2023-02-18T14:08:41;7.55;;;2.63;;
47413;SDS011;33163;0.000;0.000;2023-02-18T14:17:12;11.18;;;3.10;;
47413;SDS011;33163;0.000;0.000;2023-02-18T14:19:52;7.22;;;2.42;;
47413;SDS011;33163;0.000;0.000;2023-02-18T14:22:28;10.40;;;2.63;;
47413;SDS011;33163;0.000;0.000;2023-02-18T14:25:01;9.35;;;2.80;;
47413;SDS011;33163;0.000;0.000;2023-02-18T14:27:32;9.15;;;2.88;;
47413;SDS011;33163;0.000;0.000;2023-02-18T14:30:01;12.55;;;2.88;;
47413;SDS011;33163;0.000;0.000;2023-02-18T14:32:29;12.32;;;2.97;;
47413;SDS011;33163;0.000;0.000;2023-02-18T14:35:00;16.20;;;3.03;;
47413;SDS011;33163;0.000;0.000;2023-02-18T14:37:45;12.05;;;3.42;;
47413;SDS011;33163;0.000;0.000;2023-02-18T14:43:49;9.85;;;2.60;;
47413;SDS011;33163;0.000;0.000;2023-02-18T14:46:35;14.77;;;2.85;;
47413;SDS011;33163;0.000;0.000;2023-02-18T14:49:16;11.60;;;3.17;;
47413;SDS011;33163;0.000;0.000;2023-02-18T14:51:55;13.95;;;2.40;;
47413;SDS011;33163;0.000;0.000;2023-02-18T14:54:24;10.00;;;2.72;;
47413;SDS011;33163;0.000;0.000;2023-02-18T14:56:55;12.73;;;3.17;;
47413;SDS011;33163;0.000;0.000;2023-02-18T14:59:24;14.32;;;3.33;;
47413;SDS011;33163;0.000;0.000;2023-02-18T15:01:53;14.88;;;3.03;;
47413;SDS011;33163;0.000;0.000;2023-02-18T15:04:22;9.85;;;2.65;;
47413;SDS011;33163;0.000;0.000;2023-02-18T15:06:57;10.85;;;2.75;;
47413;SDS011;33163;0.000;0.000;2023-02-18T15:09:25;10.40;;;2.85;;
47413;SDS011;33163;0.000;0.000;2023-02-18T15:11:54;15.65;;;3.78;;
47413;SDS011;33163;0.000;0.000;2023-02-18T15:14:25;11.15;;;2.60;;
47413;SDS011;33163;0.000;0.000;2023-02-18T15:16:54;9.32;;;2.67;;
47413;SDS011;33163;0.000;0.000;2023-02-18T15:19:23;13.48;;;2.85;;
47413;SDS011;33163;0.000;0.000;2023-02-18T15:21:54;13.65;;;3.40;;
47413;SDS011;33163;0.000;0.000;2023-02-18T15:24:23;9.52;;;2.67;;
47413;SDS011;33163;0.000;0.000;2023-02-18T15:26:55;9.63;;;2.10;;
47413;SDS011;33163;0.000;0.000;2023-02-18T15:29:26;9.02;;;2.22;;
47413;SDS011;33163;0.000;0.000;2023-02-18T15:31:55;6.88;;;2.03;;
47413;SDS011;33163;0.000;0.000;2023-02-18T15:34:26;13.55;;;3.45;;
47413;SDS011;33163;0.000;0.000;2023-02-18T15:37:01;13.48;;;3.58;;
47413;SDS011;33163;0.000;0.000;2023-02-18T15:39:31;10.73;;;3.20;;
47413;SDS011;33163;0.000;0.000;2023-02-18T15:41:59;10.32;;;2.90;;
47413;SDS011;33163;0.000;0.000;2023-02-18T15:44:28;12.80;;;2.90;;
47413;SDS011;33163;0.000;0.000;2023-02-18T15:46:58;11.13;;;2.42;;
47413;SDS011;33163;0.000;0.000;2023-02-18T15:49:26;12.20;;;2.95;;